Time;durP1;ratioP1;P1;durP2;ratioP2;P2;SDS_P1;SDS_P2;PMS_P1;PMS_P2;Temp;Humidity;BMP_temperature;BMP_pressure;BME280_temperature;BME280_humidity;BME280_pressure;Samples;Min_cycle;Max_cycle;Signal;HPM_P1;HPM_P2
2023/08/27 00:03:56;;;;;;;12.27;10.15;;;;;;;;;;10174749;28;20058;-80
2023/08/27 00:14:04;;;;;;;10.80;9.70;;;;;;;;;;11314598;23;20046;-68
2023/08/27 00:19:02;;;;;;;10.20;9.32;;;;;;;;;;10147452;28;20408;-67
2023/08/27 00:23:58;;;;;;;10.93;9.85;;;;;;;;;;10145427;28;20053;-66
2023/08/27 00:28:55;;;;;;;10.45;9.50;;;;;;;;;;10178596;28;20042;-67
2023/08/27 00:33:52;;;;;;;10.32;9.32;;;;;;;;;;10179556;28;20589;-67
2023/08/27 00:38:48;;;;;;;10.65;9.65;;;;;;;;;;10178894;28;20054;-66
2023/08/27 00:43:44;;;;;;;10.63;9.57;;;;;;;;;;10179447;28;20054;-67
2023/08/27 00:48:41;;;;;;;10.73;9.63;;;;;;;;;;10180873;28;20050;-67
2023/08/27 00:53:38;;;;;;;9.70;8.90;;;;;;;;;;10175227;28;20669;-66
2023/08/27 00:58:35;;;;;;;10.05;9.20;;;;;;;;;;10176654;28;20528;-66
2023/08/27 01:03:32;;;;;;;9.73;8.95;;;;;;;;;;10168887;28;20394;-66
2023/08/27 01:08:33;;;;;;;10.27;9.38;;;;;;;;;;10177561;28;20050;-66
2023/08/27 01:13:35;;;;;;;10.60;9.68;;;;;;;;;;10173309;28;20759;-66
2023/08/27 01:18:33;;;;;;;10.32;9.00;;;;;;;;;;10181381;28;20181;-66
2023/08/27 01:23:29;;;;;;;9.70;9.00;;;;;;;;;;10172280;28;20050;-66
2023/08/27 01:28:31;;;;;;;9.63;8.73;;;;;;;;;;10179400;28;20042;-66
2023/08/27 01:33:28;;;;;;;10.23;9.32;;;;;;;;;;10170663;28;20052;-66
2023/08/27 01:38:25;;;;;;;10.02;9.13;;;;;;;;;;10181041;28;20050;-66
2023/08/27 01:43:21;;;;;;;10.35;9.35;;;;;;;;;;10177397;28;20061;-66
2023/08/27 01:48:17;;;;;;;10.25;9.25;;;;;;;;;;10184760;28;20506;-66
2023/08/27 01:53:14;;;;;;;10.93;9.40;;;;;;;;;;10183003;28;20056;-66
2023/08/27 01:58:11;;;;;;;10.05;9.05;;;;;;;;;;10180206;28;20058;-67
2023/08/27 02:03:07;;;;;;;11.18;10.13;;;;;;;;;;10180273;28;20070;-66
2023/08/27 02:08:03;;;;;;;10.57;9.68;;;;;;;;;;10174582;28;20046;-67
2023/08/27 02:12:59;;;;;;;10.05;9.07;;;;;;;;;;10181125;28;20073;-67
2023/08/27 02:17:56;;;;;;;10.10;9.10;;;;;;;;;;10177286;28;20050;-67
2023/08/27 02:22:54;;;;;;;9.95;9.15;;;;;;;;;;10182792;28;20061;-67
2023/08/27 02:27:50;;;;;;;10.02;9.20;;;;;;;;;;10189913;28;20049;-67
2023/08/27 02:32:46;;;;;;;10.35;9.45;;;;;;;;;;10178885;28;20076;-66
2023/08/27 02:37:43;;;;;;;10.13;9.18;;;;;;;;;;10189703;28;20073;-66
2023/08/27 02:42:39;;;;;;;9.90;9.10;;;;;;;;;;10179610;28;20056;-67
2023/08/27 02:47:35;;;;;;;9.82;9.02;;;;;;;;;;10182884;28;20045;-66
2023/08/27 02:52:32;;;;;;;10.30;9.50;;;;;;;;;;10176783;28;20066;-67
2023/08/27 02:57:28;;;;;;;10.45;9.57;;;;;;;;;;10184718;28;20112;-66
2023/08/27 03:02:26;;;;;;;9.07;8.38;;;;;;;;;;10176758;28;20051;-66
2023/08/27 03:07:22;;;;;;;9.98;9.07;;;;;;;;;;10180900;28;20042;-66
2023/08/27 03:12:19;;;;;;;10.38;9.57;;;;;;;;;;10178636;28;20058;-66
2023/08/27 03:17:15;;;;;;;9.60;8.80;;;;;;;;;;10177732;28;20615;-66
2023/08/27 03:22:12;;;;;;;9.52;8.75;;;;;;;;;;10183134;28;20046;-66
2023/08/27 03:27:08;;;;;;;9.65;8.75;;;;;;;;;;10184933;28;20081;-66
2023/08/27 03:32:05;;;;;;;9.48;8.60;;;;;;;;;;10187457;28;20092;-66
2023/08/27 03:37:01;;;;;;;12.90;8.73;;;;;;;;;;10178818;28;20057;-67
2023/08/27 03:41:57;;;;;;;9.77;8.77;;;;;;;;;;10183380;28;20492;-66
2023/08/27 03:46:54;;;;;;;10.05;9.15;;;;;;;;;;10182508;28;20046;-66
2023/08/27 03:51:50;;;;;;;9.75;8.77;;;;;;;;;;10185853;28;20104;-66
2023/08/27 03:56:47;;;;;;;10.48;9.55;;;;;;;;;;10181931;28;20477;-66
2023/08/27 04:01:43;;;;;;;10.10;9.20;;;;;;;;;;10173502;28;20049;-67
2023/08/27 04:06:39;;;;;;;9.10;8.25;;;;;;;;;;10173954;28;20504;-66
2023/08/27 04:11:35;;;;;;;11.20;9.23;;;;;;;;;;10181914;28;20179;-65
2023/08/27 04:16:32;;;;;;;9.95;9.15;;;;;;;;;;10170712;28;20137;-66
2023/08/27 04:21:29;;;;;;;9.60;8.90;;;;;;;;;;10170650;28;20105;-66
2023/08/27 04:26:25;;;;;;;9.95;8.98;;;;;;;;;;10172066;28;20070;-66
2023/08/27 04:31:22;;;;;;;9.30;8.50;;;;;;;;;;10182489;28;20355;-66
2023/08/27 04:36:18;;;;;;;13.15;9.60;;;;;;;;;;10184345;28;20527;-66
2023/08/27 04:41:14;;;;;;;10.57;9.60;;;;;;;;;;10179769;28;20502;-66
2023/08/27 04:46:11;;;;;;;10.98;9.90;;;;;;;;;;10179190;28;20073;-67
2023/08/27 04:51:07;;;;;;;10.02;9.13;;;;;;;;;;10174409;28;20041;-67
2023/08/27 04:56:04;;;;;;;10.20;9.30;;;;;;;;;;10169085;28;20041;-66
2023/08/27 05:01:00;;;;;;;9.25;8.35;;;;;;;;;;10185706;28;20461;-66
2023/08/27 05:05:56;;;;;;;9.93;9.13;;;;;;;;;;10176433;28;20109;-66
2023/08/27 05:10:53;;;;;;;10.38;9.35;;;;;;;;;;10182150;28;20054;-67
2023/08/27 05:15:49;;;;;;;9.70;8.85;;;;;;;;;;10181817;28;20061;-66
2023/08/27 05:20:46;;;;;;;9.63;8.80;;;;;;;;;;10189227;28;20535;-68
2023/08/27 05:25:42;;;;;;;10.38;9.32;;;;;;;;;;10179246;28;20128;-65
2023/08/27 05:30:41;;;;;;;10.07;9.13;;;;;;;;;;10178625;28;20807;-66
2023/08/27 05:35:37;;;;;;;10.95;9.88;;;;;;;;;;10183757;28;20093;-66
2023/08/27 05:40:34;;;;;;;9.90;9.10;;;;;;;;;;10183707;28;20049;-66
2023/08/27 05:45:30;;;;;;;10.05;8.77;;;;;;;;;;10180513;28;20047;-66
2023/08/27 05:50:26;;;;;;;10.00;9.05;;;;;;;;;;10187985;28;20057;-66
2023/08/27 05:55:23;;;;;;;10.57;9.68;;;;;;;;;;10175550;28;20054;-66
2023/08/27 06:00:19;;;;;;;10.27;9.40;;;;;;;;;;10176328;28;20501;-65
2023/08/27 06:05:15;;;;;;;10.02;9.23;;;;;;;;;;10175719;28;20077;-66
2023/08/27 06:10:12;;;;;;;10.15;9.18;;;;;;;;;;10184405;28;20715;-67
2023/08/27 06:15:08;;;;;;;9.63;8.82;;;;;;;;;;10180738;28;20088;-66
2023/08/27 06:20:07;;;;;;;10.15;9.05;;;;;;;;;;10183566;28;20057;-67
2023/08/27 06:25:04;;;;;;;10.65;9.30;;;;;;;;;;10183078;28;20489;-67
2023/08/27 06:30:00;;;;;;;10.25;9.35;;;;;;;;;;10192169;28;20058;-66
2023/08/27 06:34:56;;;;;;;11.73;9.82;;;;;;;;;;10179559;28;20078;-66
2023/08/27 06:39:53;;;;;;;12.00;9.65;;;;;;;;;;10191986;28;20138;-65
2023/08/27 06:44:49;;;;;;;8.80;8.00;;;;;;;;;;10179008;28;20064;-66
2023/08/27 06:49:45;;;;;;;8.80;8.00;;;;;;;;;;10188382;28;20559;-65
2023/08/27 06:54:42;;;;;;;8.95;8.07;;;;;;;;;;10182607;28;20050;-65
2023/08/27 06:59:38;;;;;;;8.27;7.57;;;;;;;;;;10179793;28;20058;-64
2023/08/27 07:04:34;;;;;;;9.07;8.27;;;;;;;;;;10178453;28;20050;-66
2023/08/27 07:09:31;;;;;;;9.88;7.93;;;;;;;;;;10175179;28;20074;-65
2023/08/27 07:14:27;;;;;;;9.00;7.80;;;;;;;;;;10180038;28;20057;-65
2023/08/27 07:19:24;;;;;;;9.00;8.20;;;;;;;;;;10182222;28;20058;-66
2023/08/27 07:24:20;;;;;;;9.13;7.80;;;;;;;;;;10177161;28;20721;-66
2023/08/27 07:29:17;;;;;;;7.68;6.97;;;;;;;;;;10175032;28;20509;-71
2023/08/27 07:34:13;;;;;;;9.25;7.03;;;;;;;;;;10172336;28;20049;-71
2023/08/27 07:39:09;;;;;;;13.23;7.05;;;;;;;;;;10169807;28;20167;-72
2023/08/27 07:44:06;;;;;;;11.95;7.15;;;;;;;;;;10177554;28;20518;-73
2023/08/27 07:49:02;;;;;;;11.05;7.18;;;;;;;;;;10174463;28;20039;-73
2023/08/27 07:53:59;;;;;;;6.97;6.28;;;;;;;;;;10171291;28;20054;-73
2023/08/27 07:58:55;;;;;;;7.60;6.85;;;;;;;;;;10173788;28;20049;-74
2023/08/27 08:04:01;;;;;;;8.75;7.38;;;;;;;;;;10633256;23;20101;-73
2023/08/27 08:08:57;;;;;;;7.45;6.75;;;;;;;;;;10175535;28;20050;-74
2023/08/27 08:13:54;;;;;;;9.60;7.30;;;;;;;;;;10181311;28;20528;-73
2023/08/27 08:18:50;;;;;;;7.95;7.25;;;;;;;;;;10179541;28;20062;-74
2023/08/27 08:23:47;;;;;;;10.35;7.03;;;;;;;;;;10160468;28;20050;-72
2023/08/27 08:28:43;;;;;;;8.95;6.78;;;;;;;;;;10173395;28;20060;-72
2023/08/27 08:33:40;;;;;;;7.40;6.60;;;;;;;;;;10170182;28;20050;-72
2023/08/27 08:38:36;;;;;;;7.32;6.63;;;;;;;;;;10175184;28;20465;-72
2023/08/27 08:48:47;;;;;;;15.85;11.07;;;;;;;;;;10337229;23;20048;-72
2023/08/27 08:53:45;;;;;;;8.20;7.45;;;;;;;;;;10264269;28;20080;-71
2023/08/27 08:58:42;;;;;;;11.88;6.85;;;;;;;;;;10281458;28;20059;-71
2023/08/27 09:20:05;;;;;;;9.80;6.68;;;;;;;;;;10116301;28;20054;-71
2023/08/27 09:25:02;;;;;;;6.93;6.32;;;;;;;;;;10240015;23;20230;-71
2023/08/27 09:30:00;;;;;;;7.32;6.03;;;;;;;;;;10211747;28;20049;-71
2023/08/27 09:35:00;;;;;;;7.80;7.10;;;;;;;;;;10195546;28;20047;-72
2023/08/27 09:39:57;;;;;;;6.95;6.25;;;;;;;;;;10202745;28;20057;-72
2023/08/27 09:44:53;;;;;;;7.47;6.00;;;;;;;;;;10219078;28;20523;-71
2023/08/27 09:49:50;;;;;;;7.63;6.32;;;;;;;;;;10197894;28;20184;-71
2023/08/27 09:54:46;;;;;;;7.10;6.40;;;;;;;;;;10216961;23;20695;-71
2023/08/27 09:59:43;;;;;;;9.57;6.70;;;;;;;;;;10208265;28;20045;-71
2023/08/27 10:04:49;;;;;;;6.63;6.03;;;;;;;;;;10215977;28;20156;-71
2023/08/27 10:09:50;;;;;;;6.72;6.03;;;;;;;;;;10219208;28;20517;-71
2023/08/27 10:14:47;;;;;;;7.63;6.68;;;;;;;;;;10588180;23;20057;-71
2023/08/27 10:19:43;;;;;;;7.90;6.70;;;;;;;;;;10181980;28;20556;-71
2023/08/27 10:24:41;;;;;;;7.10;6.45;;;;;;;;;;10188000;28;20472;-71
2023/08/27 10:29:37;;;;;;;9.75;6.68;;;;;;;;;;10177455;28;20058;-70
2023/08/27 10:34:34;;;;;;;7.10;6.47;;;;;;;;;;10183390;28;20046;-70
2023/08/27 10:39:32;;;;;;;7.07;6.30;;;;;;;;;;10179711;28;20084;-71
2023/08/27 10:50:50;;;;;;;9.70;6.70;;;;;;;;;;10050203;28;20043;-71
2023/08/27 10:55:50;;;;;;;7.93;6.90;;;;;;;;;;10178097;28;20520;-71
2023/08/27 11:01:03;;;;;;;6.80;6.22;;;;;;;;;;10223524;28;20104;-71
2023/08/27 11:06:12;;;;;;;9.20;6.30;;;;;;;;;;10226633;28;20053;-70
2023/08/27 11:11:12;;;;;;;7.63;6.55;;;;;;;;;;10218812;28;20050;-70
2023/08/27 11:16:11;;;;;;;6.43;5.82;;;;;;;;;;10657935;22;20104;-70
2023/08/27 11:21:26;;;;;;;6.82;6.13;;;;;;;;;;10224679;28;20049;-70
2023/08/27 11:26:22;;;;;;;6.38;5.78;;;;;;;;;;10221737;28;20523;-70
2023/08/27 11:31:19;;;;;;;5.88;5.38;;;;;;;;;;10216790;28;20101;-70
2023/08/27 11:36:15;;;;;;;6.53;5.50;;;;;;;;;;10517166;22;20079;-84
2023/08/27 11:41:12;;;;;;;8.82;5.78;;;;;;;;;;10114072;28;20054;-81
2023/08/27 11:46:26;;;;;;;7.95;7.18;;;;;;;;;;10103070;28;20130;-84
2023/08/27 11:51:23;;;;;;;7.13;6.15;;;;;;;;;;10091172;28;20042;-79
2023/08/27 11:56:21;;;;;;;7.40;6.57;;;;;;;;;;10107870;28;20046;-79
2023/08/27 12:01:21;;;;;;;6.32;5.70;;;;;;;;;;10102195;28;20054;-79
2023/08/27 12:06:26;;;;;;;7.72;6.53;;;;;;;;;;10103280;28;20062;-81
2023/08/27 12:11:26;;;;;;;5.93;5.43;;;;;;;;;;10109492;28;20050;-80
2023/08/27 12:16:31;;;;;;;6.30;5.70;;;;;;;;;;10115430;28;20059;-86
2023/08/27 12:21:50;;;;;;;6.95;6.35;;;;;;;;;;10104708;28;20422;-82
2023/08/27 12:26:47;;;;;;;7.78;7.07;;;;;;;;;;10093272;28;20054;-80
2023/08/27 12:31:50;;;;;;;7.97;7.32;;;;;;;;;;10103594;28;20101;-81
2023/08/27 12:36:52;;;;;;;7.35;6.47;;;;;;;;;;10071330;28;20056;-81
2023/08/27 12:41:56;;;;;;;7.20;6.60;;;;;;;;;;10108143;28;20047;-80
2023/08/27 12:46:52;;;;;;;6.95;6.38;;;;;;;;;;10088515;28;20074;-81
2023/08/27 12:51:50;;;;;;;6.40;5.85;;;;;;;;;;10095619;28;20165;-80
2023/08/27 12:56:47;;;;;;;7.32;6.07;;;;;;;;;;10093802;28;20134;-82
2023/08/27 13:01:44;;;;;;;6.55;5.95;;;;;;;;;;10097180;28;20081;-81
2023/08/27 13:06:44;;;;;;;6.35;5.85;;;;;;;;;;10080095;28;20050;-81
2023/08/27 13:11:42;;;;;;;6.15;5.65;;;;;;;;;;10094050;28;20074;-82
2023/08/27 13:16:38;;;;;;;6.78;6.18;;;;;;;;;;10106871;28;20050;-79
2023/08/27 13:21:36;;;;;;;6.40;5.85;;;;;;;;;;10067035;28;20154;-81
2023/08/27 13:26:40;;;;;;;7.03;5.60;;;;;;;;;;10085820;28;20054;-82
2023/08/27 13:31:38;;;;;;;5.78;5.22;;;;;;;;;;10089352;28;20062;-82
2023/08/27 13:36:35;;;;;;;5.75;5.25;;;;;;;;;;10096245;28;20090;-75
2023/08/27 13:41:38;;;;;;;5.30;4.80;;;;;;;;;;10122523;28;20129;-79
2023/08/27 13:46:35;;;;;;;5.90;5.40;;;;;;;;;;10100665;28;20050;-79
2023/08/27 13:51:32;;;;;;;7.03;6.30;;;;;;;;;;10105292;28;20042;-79
2023/08/27 13:56:28;;;;;;;8.93;7.07;;;;;;;;;;10105812;28;20061;-79
2023/08/27 14:01:30;;;;;;;8.43;6.93;;;;;;;;;;10091648;28;20057;-80
2023/08/27 14:06:30;;;;;;;7.60;6.55;;;;;;;;;;10119689;28;20062;-83
2023/08/27 14:11:27;;;;;;;8.07;6.93;;;;;;;;;;10094657;28;20138;-79
2023/08/27 14:16:25;;;;;;;6.95;6.30;;;;;;;;;;10095524;28;20067;-80
2023/08/27 14:21:22;;;;;;;7.13;6.43;;;;;;;;;;10114019;28;20499;-80
2023/08/27 14:26:19;;;;;;;9.20;7.30;;;;;;;;;;10105812;28;20054;-80
2023/08/27 14:31:16;;;;;;;8.23;7.35;;;;;;;;;;10118641;28;20081;-80
2023/08/27 14:36:14;;;;;;;9.45;6.60;;;;;;;;;;10123852;28;20050;-82
2023/08/27 14:41:15;;;;;;;7.45;6.85;;;;;;;;;;10159120;28;20046;-80
2023/08/27 14:46:21;;;;;;;7.50;6.43;;;;;;;;;;10141771;28;20542;-80
2023/08/27 14:51:19;;;;;;;7.97;7.10;;;;;;;;;;10137250;28;20054;-79
2023/08/27 14:56:16;;;;;;;6.95;6.35;;;;;;;;;;10134373;28;20074;-79
2023/08/27 15:01:12;;;;;;;7.32;6.68;;;;;;;;;;10153716;28;20061;-79
2023/08/27 15:06:09;;;;;;;7.13;6.20;;;;;;;;;;10151076;28;20050;-80
2023/08/27 15:11:06;;;;;;;7.93;6.28;;;;;;;;;;10137004;28;20058;-82
2023/08/27 15:16:03;;;;;;;6.72;6.22;;;;;;;;;;10133429;28;20074;-78
2023/08/27 15:21:01;;;;;;;6.38;5.78;;;;;;;;;;10147560;28;20148;-79
2023/08/27 15:25:58;;;;;;;6.35;5.75;;;;;;;;;;10147181;28;20098;-80
2023/08/27 15:30:55;;;;;;;6.70;6.15;;;;;;;;;;10139734;28;20053;-80
2023/08/27 15:35:51;;;;;;;7.25;6.40;;;;;;;;;;10157827;28;20050;-78
2023/08/27 15:40:54;;;;;;;7.32;5.75;;;;;;;;;;10133552;28;20077;-80
2023/08/27 15:45:51;;;;;;;5.80;5.20;;;;;;;;;;10156821;28;20414;-80
2023/08/27 15:50:49;;;;;;;7.00;6.40;;;;;;;;;;10135043;28;20050;-80
2023/08/27 15:55:47;;;;;;;7.03;5.95;;;;;;;;;;10125759;28;20613;-81
2023/08/27 16:00:53;;;;;;;6.38;5.80;;;;;;;;;;10149708;28;20539;-82
2023/08/27 16:05:52;;;;;;;6.93;5.15;;;;;;;;;;10128060;28;20042;-83
2023/08/27 16:10:51;;;;;;;6.82;6.22;;;;;;;;;;10125373;28;20077;-81
2023/08/27 16:15:52;;;;;;;6.50;5.90;;;;;;;;;;10142931;28;20105;-82
2023/08/27 16:20:49;;;;;;;7.55;5.45;;;;;;;;;;10117828;28;20474;-81
2023/08/27 16:25:46;;;;;;;6.68;6.00;;;;;;;;;;10130107;28;20046;-80
2023/08/27 16:30:43;;;;;;;6.60;6.00;;;;;;;;;;10129829;28;20058;-80
2023/08/27 16:35:43;;;;;;;5.97;5.47;;;;;;;;;;10121198;28;20061;-80
2023/08/27 16:40:39;;;;;;;6.70;6.10;;;;;;;;;;10125993;28;20077;-79
2023/08/27 16:45:36;;;;;;;7.22;6.63;;;;;;;;;;10131125;28;20422;-79
2023/08/27 16:50:36;;;;;;;6.95;6.35;;;;;;;;;;10118473;28;20053;-80
2023/08/27 16:55:33;;;;;;;6.28;5.78;;;;;;;;;;10146815;28;20050;-85
2023/08/27 17:00:30;;;;;;;8.43;6.05;;;;;;;;;;10129035;28;20081;-79
2023/08/27 17:05:27;;;;;;;6.35;5.85;;;;;;;;;;10152262;28;20055;-81
2023/08/27 17:10:26;;;;;;;7.00;6.30;;;;;;;;;;10138314;28;20145;-82
2023/08/27 17:15:23;;;;;;;6.97;6.38;;;;;;;;;;10142299;28;20530;-80
2023/08/27 17:20:20;;;;;;;9.20;7.75;;;;;;;;;;10123925;28;20077;-79
2023/08/27 17:25:17;;;;;;;10.35;5.95;;;;;;;;;;10148649;28;20054;-83
2023/08/27 17:30:14;;;;;;;8.00;5.38;;;;;;;;;;10141992;28;20054;-81
2023/08/27 17:35:11;;;;;;;7.82;5.90;;;;;;;;;;10129012;28;20541;-81
2023/08/27 17:40:09;;;;;;;7.22;6.45;;;;;;;;;;10131702;28;20050;-82
2023/08/27 17:45:07;;;;;;;6.70;6.18;;;;;;;;;;10160251;28;20050;-74
2023/08/27 17:50:07;;;;;;;7.25;6.40;;;;;;;;;;10122910;28;20522;-84
2023/08/27 17:55:05;;;;;;;7.55;6.18;;;;;;;;;;10116211;28;20082;-79
2023/08/27 18:00:06;;;;;;;6.20;5.60;;;;;;;;;;10117942;28;20048;-79
2023/08/27 18:05:08;;;;;;;7.10;6.50;;;;;;;;;;10113313;28;20066;-82
2023/08/27 18:10:06;;;;;;;8.73;6.90;;;;;;;;;;10129214;28;20046;-79
2023/08/27 18:15:02;;;;;;;7.55;6.82;;;;;;;;;;10134315;28;20137;-82
2023/08/27 18:20:00;;;;;;;7.07;6.38;;;;;;;;;;10150051;28;20054;-80
2023/08/27 18:25:00;;;;;;;7.35;6.65;;;;;;;;;;10138136;28;20057;-80
2023/08/27 18:30:00;;;;;;;7.40;6.72;;;;;;;;;;10150817;28;20050;-79
2023/08/27 18:35:03;;;;;;;6.88;6.20;;;;;;;;;;10163659;28;20058;-88
2023/08/27 18:40:07;;;;;;;7.40;6.80;;;;;;;;;;10150866;28;20069;-80
2023/08/27 18:45:05;;;;;;;7.55;6.50;;;;;;;;;;10155480;28;20093;-79
2023/08/27 18:50:03;;;;;;;8.32;7.55;;;;;;;;;;10139261;28;20050;-82
2023/08/27 18:55:01;;;;;;;7.78;7.07;;;;;;;;;;10162338;28;21181;-79
2023/08/27 19:00:04;;;;;;;8.80;6.68;;;;;;;;;;10129455;28;20058;-81
2023/08/27 19:05:07;;;;;;;7.93;7.13;;;;;;;;;;10132545;28;20471;-81
2023/08/27 19:10:15;;;;;;;10.65;7.47;;;;;;;;;;10128345;28;20039;-79
2023/08/27 19:15:15;;;;;;;8.98;8.18;;;;;;;;;;10156889;28;20670;-80
2023/08/27 19:20:14;;;;;;;8.90;8.05;;;;;;;;;;10127439;28;20051;-80
2023/08/27 19:25:13;;;;;;;8.52;7.28;;;;;;;;;;10135234;28;20111;-80
2023/08/27 19:30:11;;;;;;;8.50;7.35;;;;;;;;;;10141325;28;20051;-87
2023/08/27 19:35:09;;;;;;;8.40;7.70;;;;;;;;;;10129587;28;20083;-79
2023/08/27 19:40:07;;;;;;;9.18;8.00;;;;;;;;;;10116265;28;20098;-80
2023/08/27 19:45:05;;;;;;;8.82;7.53;;;;;;;;;;10140986;28;20415;-79
2023/08/27 19:50:02;;;;;;;8.15;7.43;;;;;;;;;;10151714;28;20046;-82
2023/08/27 19:54:59;;;;;;;8.18;7.38;;;;;;;;;;10152377;28;20531;-79
2023/08/27 19:59:58;;;;;;;8.13;7.30;;;;;;;;;;10129580;28;20058;-79
2023/08/27 20:04:55;;;;;;;7.22;6.57;;;;;;;;;;10149291;28;20470;-82
2023/08/27 20:10:03;;;;;;;7.20;6.57;;;;;;;;;;10141900;28;20102;-82
2023/08/27 20:15:01;;;;;;;8.63;7.30;;;;;;;;;;10126504;28;20487;-83
2023/08/27 20:20:00;;;;;;;11.82;6.93;;;;;;;;;;10120232;28;20922;-82
2023/08/27 20:25:00;;;;;;;7.68;6.78;;;;;;;;;;10141636;28;20133;-83
2023/08/27 20:29:57;;;;;;;7.22;6.60;;;;;;;;;;10143102;28;20034;-82
2023/08/27 20:34:53;;;;;;;6.90;6.40;;;;;;;;;;10144218;28;20046;-82
2023/08/27 20:39:51;;;;;;;8.35;7.63;;;;;;;;;;10130472;28;20075;-81
2023/08/27 20:44:50;;;;;;;7.53;6.82;;;;;;;;;;10127968;28;20054;-82
2023/08/27 20:49:48;;;;;;;7.80;7.15;;;;;;;;;;10140666;28;20106;-83
2023/08/27 20:54:45;;;;;;;7.72;7.07;;;;;;;;;;10130621;28;20051;-84
2023/08/27 20:59:45;;;;;;;7.20;6.70;;;;;;;;;;10150624;28;20097;-83
2023/08/27 21:04:42;;;;;;;9.25;6.90;;;;;;;;;;10122798;28;20134;-84
2023/08/27 21:09:38;;;;;;;7.55;6.95;;;;;;;;;;10151598;28;20053;-84
2023/08/27 21:14:35;;;;;;;8.57;7.88;;;;;;;;;;10120450;28;20515;-83
2023/08/27 21:19:32;;;;;;;7.80;7.10;;;;;;;;;;10145943;28;20046;-85
2023/08/27 21:24:30;;;;;;;7.70;7.05;;;;;;;;;;10147562;28;20072;-83
2023/08/27 21:29:28;;;;;;;8.10;7.40;;;;;;;;;;10138285;28;20042;-83
2023/08/27 21:34:25;;;;;;;7.45;6.75;;;;;;;;;;10120644;28;20138;-83
2023/08/27 21:39:22;;;;;;;7.68;6.97;;;;;;;;;;10133022;28;20462;-84
2023/08/27 21:44:22;;;;;;;6.95;6.35;;;;;;;;;;10127904;28;20491;-83
2023/08/27 21:49:22;;;;;;;7.32;6.72;;;;;;;;;;10140744;28;20057;-84
2023/08/27 21:54:19;;;;;;;8.00;7.35;;;;;;;;;;10124482;28;20050;-83
2023/08/27 21:59:21;;;;;;;6.90;6.30;;;;;;;;;;10141801;28;20069;-82
2023/08/27 22:04:20;;;;;;;6.75;6.15;;;;;;;;;;10139248;28;20495;-83
2023/08/27 22:09:17;;;;;;;6.97;6.38;;;;;;;;;;10147129;28;20428;-83
2023/08/27 22:14:16;;;;;;;9.05;6.75;;;;;;;;;;10143604;28;20047;-82
2023/08/27 22:19:13;;;;;;;7.50;6.63;;;;;;;;;;10133306;28;20429;-82
2023/08/27 22:24:19;;;;;;;7.32;6.57;;;;;;;;;;10154317;28;20055;-82
2023/08/27 22:29:16;;;;;;;7.50;6.80;;;;;;;;;;10142954;28;20050;-84
2023/08/27 22:34:14;;;;;;;7.60;7.00;;;;;;;;;;10144919;28;20058;-84
2023/08/27 22:39:11;;;;;;;7.22;6.53;;;;;;;;;;10153955;28;20084;-83
2023/08/27 22:44:10;;;;;;;6.95;6.35;;;;;;;;;;10147756;28;20051;-83
2023/08/27 22:49:08;;;;;;;7.93;7.28;;;;;;;;;;10132285;28;20133;-83
2023/08/27 22:54:07;;;;;;;7.10;6.43;;;;;;;;;;10156685;28;21103;-82
2023/08/27 22:59:07;;;;;;;6.72;6.13;;;;;;;;;;10165471;28;20411;-85
2023/08/27 23:04:04;;;;;;;7.43;6.82;;;;;;;;;;10154141;28;20141;-83
2023/08/27 23:09:01;;;;;;;7.45;6.85;;;;;;;;;;10145678;28;20098;-85
2023/08/27 23:13:58;;;;;;;8.80;6.70;;;;;;;;;;10151772;28;20626;-84
2023/08/27 23:18:56;;;;;;;7.90;7.03;;;;;;;;;;10135455;28;20050;-84
2023/08/27 23:23:53;;;;;;;7.65;7.00;;;;;;;;;;10137435;28;20471;-88
2023/08/27 23:28:51;;;;;;;9.65;7.30;;;;;;;;;;10165492;28;20418;-85
2023/08/27 23:33:51;;;;;;;7.50;6.90;;;;;;;;;;10144167;28;20042;-84
2023/08/27 23:38:49;;;;;;;8.13;7.32;;;;;;;;;;10133157;28;20058;-82
2023/08/27 23:43:48;;;;;;;7.72;7.10;;;;;;;;;;10144529;28;20054;-81
2023/08/27 23:48:48;;;;;;;8.65;7.85;;;;;;;;;;10127929;28;20062;-83
2023/08/27 23:53:45;;;;;;;7.63;6.93;;;;;;;;;;10143151;28;20108;-82
2023/08/27 23:58:42;;;;;;;9.30;7.15;;;;;;;;;;10150908;28;20760;-81
